Terminal Aerodrome Forecast
Issued by NWS

Home | Current Version | Previous Version | Graphics & Text | Print | Product List | Glossary On
Versions: 1 2 3 4 5 6 7 8 9 10 11 12 13 14 15 16 17 18 19 20 21 22 23 24 25 26 27 28 29 30 31 32 33 34 35 36 37 38 39 40 41
000
FTUS43 KLOT 271100
TAFMDW
TAF
KMDW 271138Z 2712/2812 31009KT P6SM VCSH BKN050 OVC080
     FM271600 31011G16KT P6SM BKN018 BKN045
     FM272000 31012G18KT P6SM SCT025 BKN035
     FM272200 31011G15KT P6SM SCT035
     FM280100 29006KT P6SM SCT250
     FM280900 20005KT P6SM BKN100=

USA.gov is the U.S. government's official web portal to all federal, state and local government web resources and services.